sensor_id;sensor_type;location;lat;lon;timestamp;pressure;altitude;pressure_sealevel;temperature;humidity
69971;BME280;57301;50.328;8.542;2023-08-17T00:01:10;98698.44;;;19.01;100.00
69971;BME280;57301;50.328;8.542;2023-08-17T00:03:37;98692.59;;;18.91;100.00
69971;BME280;57301;50.328;8.542;2023-08-17T00:06:04;98697.53;;;18.81;100.00
69971;BME280;57301;50.328;8.542;2023-08-17T00:08:30;98697.19;;;18.97;100.00
69971;BME280;57301;50.328;8.542;2023-08-17T00:10:57;98696.38;;;18.97;100.00
69971;BME280;57301;50.328;8.542;2023-08-17T00:13:23;98691.38;;;18.59;100.00
69971;BME280;57301;50.328;8.542;2023-08-17T00:15:49;98688.81;;;18.44;100.00
69971;BME280;57301;50.328;8.542;2023-08-17T00:18:16;98682.63;;;18.57;100.00
69971;BME280;57301;50.328;8.542;2023-08-17T00:20:42;98687.75;;;18.73;100.00
69971;BME280;57301;50.328;8.542;2023-08-17T00:23:10;98686.50;;;18.76;100.00
69971;BME280;57301;50.328;8.542;2023-08-17T00:25:37;98682.97;;;18.75;100.00
69971;BME280;57301;50.328;8.542;2023-08-17T00:28:04;98701.56;;;18.29;100.00
69971;BME280;57301;50.328;8.542;2023-08-17T00:30:30;98705.09;;;18.23;100.00
69971;BME280;57301;50.328;8.542;2023-08-17T00:32:56;98702.41;;;18.23;100.00
69971;BME280;57301;50.328;8.542;2023-08-17T00:35:23;98713.66;;;18.33;100.00
69971;BME280;57301;50.328;8.542;2023-08-17T00:37:49;98713.81;;;18.25;100.00
69971;BME280;57301;50.328;8.542;2023-08-17T00:40:16;98707.38;;;18.26;100.00
69971;BME280;57301;50.328;8.542;2023-08-17T00:42:42;98707.25;;;18.06;100.00
69971;BME280;57301;50.328;8.542;2023-08-17T00:45:09;98707.81;;;18.23;100.00
69971;BME280;57301;50.328;8.542;2023-08-17T00:47:36;98716.69;;;18.17;100.00
69971;BME280;57301;50.328;8.542;2023-08-17T00:50:03;98709.59;;;18.16;100.00
69971;BME280;57301;50.328;8.542;2023-08-17T00:52:31;98717.28;;;18.12;100.00
69971;BME280;57301;50.328;8.542;2023-08-17T00:55:00;98716.53;;;18.25;100.00
69971;BME280;57301;50.328;8.542;2023-08-17T00:57:26;98706.00;;;18.09;100.00
69971;BME280;57301;50.328;8.542;2023-08-17T00:59:54;98708.06;;;18.35;100.00
69971;BME280;57301;50.328;8.542;2023-08-17T01:02:31;98703.22;;;18.23;100.00
69971;BME280;57301;50.328;8.542;2023-08-17T01:04:58;98704.94;;;18.31;100.00
69971;BME280;57301;50.328;8.542;2023-08-17T01:07:24;98703.56;;;18.14;100.00
69971;BME280;57301;50.328;8.542;2023-08-17T01:09:51;98690.47;;;18.11;100.00
69971;BME280;57301;50.328;8.542;2023-08-17T01:12:30;98706.19;;;18.35;100.00
69971;BME280;57301;50.328;8.542;2023-08-17T01:15:18;98707.38;;;18.54;100.00
69971;BME280;57301;50.328;8.542;2023-08-17T01:17:58;98709.66;;;18.57;100.00
69971;BME280;57301;50.328;8.542;2023-08-17T01:20:26;98707.53;;;18.52;100.00
69971;BME280;57301;50.328;8.542;2023-08-17T01:22:55;98709.38;;;18.45;100.00
69971;BME280;57301;50.328;8.542;2023-08-17T01:25:23;98719.94;;;18.40;100.00
69971;BME280;57301;50.328;8.542;2023-08-17T01:27:50;98710.34;;;18.31;100.00
69971;BME280;57301;50.328;8.542;2023-08-17T01:30:17;98702.38;;;18.58;100.00
69971;BME280;57301;50.328;8.542;2023-08-17T01:32:50;98704.56;;;18.41;100.00
69971;BME280;57301;50.328;8.542;2023-08-17T01:35:28;98693.72;;;18.34;100.00
69971;BME280;57301;50.328;8.542;2023-08-17T01:38:02;98697.16;;;18.49;100.00
69971;BME280;57301;50.328;8.542;2023-08-17T01:40:32;98698.69;;;18.31;100.00
69971;BME280;57301;50.328;8.542;2023-08-17T01:43:01;98691.25;;;18.39;100.00
69971;BME280;57301;50.328;8.542;2023-08-17T01:45:28;98691.34;;;18.52;100.00
69971;BME280;57301;50.328;8.542;2023-08-17T01:47:55;98687.00;;;18.58;100.00
69971;BME280;57301;50.328;8.542;2023-08-17T01:50:21;98686.69;;;18.40;100.00
69971;BME280;57301;50.328;8.542;2023-08-17T01:52:48;98685.44;;;18.36;100.00
69971;BME280;57301;50.328;8.542;2023-08-17T01:55:16;98684.97;;;18.25;100.00
69971;BME280;57301;50.328;8.542;2023-08-17T01:57:43;98681.69;;;18.30;100.00
69971;BME280;57301;50.328;8.542;2023-08-17T02:00:09;98681.06;;;18.35;100.00
69971;BME280;57301;50.328;8.542;2023-08-17T02:02:37;98678.22;;;18.43;100.00
69971;BME280;57301;50.328;8.542;2023-08-17T02:05:04;98680.47;;;18.39;100.00
69971;BME280;57301;50.328;8.542;2023-08-17T02:07:30;98675.03;;;18.33;100.00
69971;BME280;57301;50.328;8.542;2023-08-17T02:09:57;98683.72;;;18.28;100.00
69971;BME280;57301;50.328;8.542;2023-08-17T02:12:23;98676.06;;;18.32;100.00
69971;BME280;57301;50.328;8.542;2023-08-17T02:14:50;98680.72;;;18.44;100.00
69971;BME280;57301;50.328;8.542;2023-08-17T02:17:18;98678.59;;;18.40;100.00
69971;BME280;57301;50.328;8.542;2023-08-17T02:19:45;98677.13;;;18.37;100.00
69971;BME280;57301;50.328;8.542;2023-08-17T02:22:14;98674.75;;;18.56;100.00
69971;BME280;57301;50.328;8.542;2023-08-17T02:24:40;98665.78;;;18.48;100.00
69971;BME280;57301;50.328;8.542;2023-08-17T02:27:08;98671.00;;;18.57;100.00
69971;BME280;57301;50.328;8.542;2023-08-17T02:29:35;98667.84;;;18.53;100.00
69971;BME280;57301;50.328;8.542;2023-08-17T02:32:01;98670.59;;;18.60;100.00
69971;BME280;57301;50.328;8.542;2023-08-17T02:34:28;98667.25;;;18.58;100.00
69971;BME280;57301;50.328;8.542;2023-08-17T02:36:54;98661.59;;;18.81;100.00
69971;BME280;57301;50.328;8.542;2023-08-17T02:39:21;98659.97;;;18.93;99.54
69971;BME280;57301;50.328;8.542;2023-08-17T02:41:47;98657.72;;;18.55;100.00
69971;BME280;57301;50.328;8.542;2023-08-17T02:44:15;98667.84;;;18.53;100.00
69971;BME280;57301;50.328;8.542;2023-08-17T02:46:42;98662.47;;;18.60;100.00
69971;BME280;57301;50.328;8.542;2023-08-17T02:49:08;98662.84;;;18.43;100.00
69971;BME280;57301;50.328;8.542;2023-08-17T02:51:35;98659.16;;;18.58;100.00
69971;BME280;57301;50.328;8.542;2023-08-17T02:54:01;98658.50;;;18.49;100.00
69971;BME280;57301;50.328;8.542;2023-08-17T02:56:28;98656.44;;;18.51;100.00
69971;BME280;57301;50.328;8.542;2023-08-17T02:58:54;98660.44;;;18.62;100.00
69971;BME280;57301;50.328;8.542;2023-08-17T03:01:21;98661.63;;;18.52;100.00
69971;BME280;57301;50.328;8.542;2023-08-17T03:03:47;98668.38;;;18.70;100.00
69971;BME280;57301;50.328;8.542;2023-08-17T03:06:14;98664.88;;;18.76;100.00
69971;BME280;57301;50.328;8.542;2023-08-17T03:08:40;98662.09;;;18.63;100.00
69971;BME280;57301;50.328;8.542;2023-08-17T03:11:07;98655.94;;;18.34;100.00
69971;BME280;57301;50.328;8.542;2023-08-17T03:13:35;98654.75;;;18.43;100.00
69971;BME280;57301;50.328;8.542;2023-08-17T03:16:02;98638.81;;;18.55;100.00
69971;BME280;57301;50.328;8.542;2023-08-17T03:18:28;98649.19;;;18.58;100.00
69971;BME280;57301;50.328;8.542;2023-08-17T03:20:55;98643.16;;;18.56;100.00
69971;BME280;57301;50.328;8.542;2023-08-17T03:23:21;98642.56;;;18.61;100.00
69971;BME280;57301;50.328;8.542;2023-08-17T03:25:54;98644.38;;;18.53;100.00
69971;BME280;57301;50.328;8.542;2023-08-17T03:28:20;98650.59;;;18.47;100.00
69971;BME280;57301;50.328;8.542;2023-08-17T03:30:47;98647.53;;;18.57;100.00
69971;BME280;57301;50.328;8.542;2023-08-17T03:33:13;98651.28;;;18.63;100.00
69971;BME280;57301;50.328;8.542;2023-08-17T03:35:40;98654.59;;;18.58;100.00
69971;BME280;57301;50.328;8.542;2023-08-17T03:38:06;98658.53;;;18.56;100.00
69971;BME280;57301;50.328;8.542;2023-08-17T03:40:32;98660.44;;;18.62;100.00
69971;BME280;57301;50.328;8.542;2023-08-17T03:42:59;98659.16;;;18.58;100.00
69971;BME280;57301;50.328;8.542;2023-08-17T03:45:25;98662.28;;;18.55;100.00
69971;BME280;57301;50.328;8.542;2023-08-17T03:47:52;98659.91;;;18.73;100.00
69971;BME280;57301;50.328;8.542;2023-08-17T03:50:18;98662.63;;;18.86;100.00
69971;BME280;57301;50.328;8.542;2023-08-17T03:52:45;98656.97;;;18.68;100.00
69971;BME280;57301;50.328;8.542;2023-08-17T03:55:11;98662.78;;;18.71;100.00
69971;BME280;57301;50.328;8.542;2023-08-17T03:57:38;98664.34;;;19.00;99.98
69971;BME280;57301;50.328;8.542;2023-08-17T04:00:06;98662.31;;;18.61;100.00
69971;BME280;57301;50.328;8.542;2023-08-17T04:02:32;98664.78;;;18.56;100.00
69971;BME280;57301;50.328;8.542;2023-08-17T04:04:59;98679.19;;;18.70;100.00
69971;BME280;57301;50.328;8.542;2023-08-17T04:07:26;98675.19;;;18.66;100.00
69971;BME280;57301;50.328;8.542;2023-08-17T04:09:52;98673.53;;;18.65;100.00
69971;BME280;57301;50.328;8.542;2023-08-17T04:12:19;98682.03;;;18.62;100.00
69971;BME280;57301;50.328;8.542;2023-08-17T04:14:45;98676.97;;;18.45;100.00
69971;BME280;57301;50.328;8.542;2023-08-17T04:17:12;98676.78;;;18.53;100.00
69971;BME280;57301;50.328;8.542;2023-08-17T04:19:38;98679.34;;;18.62;100.00
69971;BME280;57301;50.328;8.542;2023-08-17T04:22:05;98677.81;;;18.52;100.00
69971;BME280;57301;50.328;8.542;2023-08-17T04:24:31;98687.03;;;18.65;100.00
69971;BME280;57301;50.328;8.542;2023-08-17T04:26:58;98691.69;;;18.77;100.00
69971;BME280;57301;50.328;8.542;2023-08-17T04:29:24;98687.34;;;18.83;100.00
69971;BME280;57301;50.328;8.542;2023-08-17T04:31:51;98694.03;;;18.87;100.00
69971;BME280;57301;50.328;8.542;2023-08-17T04:34:17;98694.25;;;18.86;99.93
69971;BME280;57301;50.328;8.542;2023-08-17T04:36:44;98693.53;;;18.70;100.00
69971;BME280;57301;50.328;8.542;2023-08-17T04:39:10;98693.16;;;18.80;100.00
69971;BME280;57301;50.328;8.542;2023-08-17T04:41:37;98701.56;;;18.64;100.00
69971;BME280;57301;50.328;8.542;2023-08-17T04:44:04;98701.44;;;18.72;100.00
69971;BME280;57301;50.328;8.542;2023-08-17T04:46:30;98703.06;;;18.66;100.00
69971;BME280;57301;50.328;8.542;2023-08-17T04:48:56;98705.41;;;18.76;100.00
69971;BME280;57301;50.328;8.542;2023-08-17T04:51:23;98696.72;;;18.87;99.92
69971;BME280;57301;50.328;8.542;2023-08-17T04:53:49;98697.84;;;18.65;100.00
69971;BME280;57301;50.328;8.542;2023-08-17T04:56:16;98701.69;;;18.84;100.00
69971;BME280;57301;50.328;8.542;2023-08-17T04:58:42;98702.28;;;18.72;99.96
69971;BME280;57301;50.328;8.542;2023-08-17T05:01:09;98706.47;;;18.82;99.86
69971;BME280;57301;50.328;8.542;2023-08-17T05:03:36;98712.34;;;18.92;98.47
69971;BME280;57301;50.328;8.542;2023-08-17T05:06:03;98711.13;;;19.01;97.17
69971;BME280;57301;50.328;8.542;2023-08-17T05:08:30;98702.75;;;18.89;97.64
69971;BME280;57301;50.328;8.542;2023-08-17T05:10:56;98713.31;;;18.77;98.40
69971;BME280;57301;50.328;8.542;2023-08-17T05:13:23;98712.31;;;18.50;99.03
69971;BME280;57301;50.328;8.542;2023-08-17T05:15:49;98719.22;;;18.25;100.00
69971;BME280;57301;50.328;8.542;2023-08-17T05:18:15;98714.41;;;18.20;100.00
69971;BME280;57301;50.328;8.542;2023-08-17T05:20:42;98710.34;;;18.31;100.00
69971;BME280;57301;50.328;8.542;2023-08-17T05:23:08;98705.44;;;18.13;100.00
69971;BME280;57301;50.328;8.542;2023-08-17T05:25:35;98705.47;;;18.20;100.00
69971;BME280;57301;50.328;8.542;2023-08-17T05:28:02;98712.19;;;18.03;100.00
69971;BME280;57301;50.328;8.542;2023-08-17T05:30:28;98716.34;;;17.98;100.00
69971;BME280;57301;50.328;8.542;2023-08-17T05:32:54;98716.22;;;18.13;100.00
69971;BME280;57301;50.328;8.542;2023-08-17T05:35:21;98718.59;;;18.23;100.00
69971;BME280;57301;50.328;8.542;2023-08-17T05:37:47;98713.56;;;18.48;100.00
69971;BME280;57301;50.328;8.542;2023-08-17T05:40:14;98713.38;;;18.56;99.70
69971;BME280;57301;50.328;8.542;2023-08-17T05:42:40;98718.63;;;18.64;98.85
69971;BME280;57301;50.328;8.542;2023-08-17T05:45:07;98719.28;;;18.66;98.93
69971;BME280;57301;50.328;8.542;2023-08-17T05:47:34;98721.91;;;18.60;99.38
69971;BME280;57301;50.328;8.542;2023-08-17T05:50:00;98724.84;;;18.65;100.00
69971;BME280;57301;50.328;8.542;2023-08-17T05:52:27;98722.31;;;18.57;100.00
69971;BME280;57301;50.328;8.542;2023-08-17T05:54:53;98729.53;;;18.84;99.36
69971;BME280;57301;50.328;8.542;2023-08-17T05:57:20;98728.53;;;18.85;99.39
69971;BME280;57301;50.328;8.542;2023-08-17T05:59:46;98730.22;;;18.93;99.35
69971;BME280;57301;50.328;8.542;2023-08-17T06:02:13;98723.81;;;19.00;97.70
69971;BME280;57301;50.328;8.542;2023-08-17T06:04:39;98724.88;;;19.06;97.42
69971;BME280;57301;50.328;8.542;2023-08-17T06:07:06;98741.09;;;19.13;97.36
69971;BME280;57301;50.328;8.542;2023-08-17T06:09:32;98739.03;;;19.15;97.76
69971;BME280;57301;50.328;8.542;2023-08-17T06:11:59;98730.63;;;18.96;99.67
69971;BME280;57301;50.328;8.542;2023-08-17T06:14:25;98731.53;;;19.10;99.12
69971;BME280;57301;50.328;8.542;2023-08-17T06:16:52;98731.34;;;19.12;99.11
69971;BME280;57301;50.328;8.542;2023-08-17T06:19:18;98734.28;;;19.23;97.99
69971;BME280;57301;50.328;8.542;2023-08-17T06:21:45;98726.22;;;19.50;95.82
69971;BME280;57301;50.328;8.542;2023-08-17T06:24:11;98728.59;;;19.59;94.48
69971;BME280;57301;50.328;8.542;2023-08-17T06:26:38;98724.00;;;19.80;92.84
69971;BME280;57301;50.328;8.542;2023-08-17T06:29:04;98726.91;;;19.58;93.55
69971;BME280;57301;50.328;8.542;2023-08-17T06:31:31;98727.81;;;19.11;95.67
69971;BME280;57301;50.328;8.542;2023-08-17T06:33:57;98723.88;;;19.27;94.04
69971;BME280;57301;50.328;8.542;2023-08-17T06:36:24;98722.03;;;19.27;93.65
69971;BME280;57301;50.328;8.542;2023-08-17T06:38:51;98735.16;;;19.37;94.89
69971;BME280;57301;50.328;8.542;2023-08-17T06:41:17;98734.81;;;19.60;94.40
69971;BME280;57301;50.328;8.542;2023-08-17T06:43:43;98735.66;;;19.87;93.39
69971;BME280;57301;50.328;8.542;2023-08-17T06:46:10;98730.91;;;20.02;91.81
69971;BME280;57301;50.328;8.542;2023-08-17T06:48:36;98737.53;;;20.06;92.42
69971;BME280;57301;50.328;8.542;2023-08-17T06:51:03;98737.97;;;20.03;91.99
69971;BME280;57301;50.328;8.542;2023-08-17T06:53:31;98742.13;;;20.12;90.47
69971;BME280;57301;50.328;8.542;2023-08-17T06:55:57;98739.22;;;20.14;91.79
69971;BME280;57301;50.328;8.542;2023-08-17T06:58:28;98744.63;;;20.21;92.01
69971;BME280;57301;50.328;8.542;2023-08-17T07:00:54;98748.56;;;20.18;91.49
69971;BME280;57301;50.328;8.542;2023-08-17T07:03:20;98747.75;;;20.24;91.47
69971;BME280;57301;50.328;8.542;2023-08-17T07:05:47;98746.06;;;20.50;90.00
69971;BME280;57301;50.328;8.542;2023-08-17T07:08:14;98748.59;;;20.51;88.77
69971;BME280;57301;50.328;8.542;2023-08-17T07:10:40;98739.19;;;20.54;89.16
69971;BME280;57301;50.328;8.542;2023-08-17T07:13:07;98734.41;;;20.62;88.12
69971;BME280;57301;50.328;8.542;2023-08-17T07:15:33;98734.34;;;20.76;87.55
69971;BME280;57301;50.328;8.542;2023-08-17T07:18:00;98731.63;;;20.82;87.13
69971;BME280;57301;50.328;8.542;2023-08-17T07:20:26;98732.44;;;20.89;86.60
69971;BME280;57301;50.328;8.542;2023-08-17T07:22:53;98730.56;;;20.83;87.83
69971;BME280;57301;50.328;8.542;2023-08-17T07:25:19;98734.66;;;20.99;85.79
69971;BME280;57301;50.328;8.542;2023-08-17T07:27:46;98730.97;;;20.93;87.12
69971;BME280;57301;50.328;8.542;2023-08-17T07:30:13;98723.78;;;21.12;86.02
69971;BME280;57301;50.328;8.542;2023-08-17T07:32:39;98726.94;;;21.48;85.66
69971;BME280;57301;50.328;8.542;2023-08-17T07:35:06;98726.88;;;22.17;81.25
69971;BME280;57301;50.328;8.542;2023-08-17T07:37:33;98738.03;;;21.78;82.52
69971;BME280;57301;50.328;8.542;2023-08-17T07:40:00;98739.50;;;21.49;83.13
69971;BME280;57301;50.328;8.542;2023-08-17T07:42:30;98740.59;;;21.28;82.56
69971;BME280;57301;50.328;8.542;2023-08-17T07:44:56;98740.63;;;21.21;83.11
69971;BME280;57301;50.328;8.542;2023-08-17T07:47:23;98743.06;;;21.36;83.58
69971;BME280;57301;50.328;8.542;2023-08-17T07:49:49;98738.31;;;21.31;81.98
69971;BME280;57301;50.328;8.542;2023-08-17T07:52:16;98742.22;;;21.42;81.32
69971;BME280;57301;50.328;8.542;2023-08-17T07:54:43;98738.38;;;21.56;80.90
69971;BME280;57301;50.328;8.542;2023-08-17T07:57:09;98736.50;;;21.88;80.12
69971;BME280;57301;50.328;8.542;2023-08-17T07:59:36;98741.06;;;21.63;81.98
69971;BME280;57301;50.328;8.542;2023-08-17T08:02:02;98747.88;;;21.72;81.42
69971;BME280;57301;50.328;8.542;2023-08-17T08:04:29;98750.53;;;21.85;81.06
69971;BME280;57301;50.328;8.542;2023-08-17T08:06:55;98742.94;;;21.62;82.46
69971;BME280;57301;50.328;8.542;2023-08-17T08:09:22;98750.25;;;21.62;81.51
69971;BME280;57301;50.328;8.542;2023-08-17T08:11:48;98754.44;;;21.58;82.01
69971;BME280;57301;50.328;8.542;2023-08-17T08:14:15;98751.63;;;21.39;83.21
69971;BME280;57301;50.328;8.542;2023-08-17T08:16:41;98756.84;;;21.41;83.14
69971;BME280;57301;50.328;8.542;2023-08-17T08:19:07;98760.97;;;21.50;83.37
69971;BME280;57301;50.328;8.542;2023-08-17T08:21:34;98754.03;;;21.61;82.65
69971;BME280;57301;50.328;8.542;2023-08-17T08:24:00;98751.31;;;21.54;82.41
69971;BME280;57301;50.328;8.542;2023-08-17T08:26:27;98758.06;;;21.45;81.99
69971;BME280;57301;50.328;8.542;2023-08-17T08:28:53;98755.75;;;21.49;83.09
69971;BME280;57301;50.328;8.542;2023-08-17T08:31:20;98752.13;;;21.61;81.61
69971;BME280;57301;50.328;8.542;2023-08-17T08:33:46;98747.88;;;21.72;80.50
69971;BME280;57301;50.328;8.542;2023-08-17T08:36:13;98751.69;;;21.64;81.55
69971;BME280;57301;50.328;8.542;2023-08-17T08:38:39;98744.50;;;21.77;81.88
69971;BME280;57301;50.328;8.542;2023-08-17T08:41:07;98745.91;;;21.86;81.75
69971;BME280;57301;50.328;8.542;2023-08-17T08:43:35;98746.00;;;21.72;82.55
69971;BME280;57301;50.328;8.542;2023-08-17T08:46:02;98750.53;;;21.79;82.22
69971;BME280;57301;50.328;8.542;2023-08-17T08:48:31;98746.72;;;21.61;82.41
69971;BME280;57301;50.328;8.542;2023-08-17T08:51:00;98763.41;;;21.90;81.91
69971;BME280;57301;50.328;8.542;2023-08-17T08:53:45;98754.75;;;21.75;81.01
69971;BME280;57301;50.328;8.542;2023-08-17T08:56:15;98765.41;;;21.76;81.99
69971;BME280;57301;50.328;8.542;2023-08-17T08:58:46;98759.44;;;22.24;79.61
69971;BME280;57301;50.328;8.542;2023-08-17T09:01:14;98757.75;;;22.23;78.08
69971;BME280;57301;50.328;8.542;2023-08-17T09:03:41;98757.88;;;22.03;80.25
69971;BME280;57301;50.328;8.542;2023-08-17T09:06:09;98757.03;;;22.03;79.54
69971;BME280;57301;50.328;8.542;2023-08-17T09:08:36;98762.88;;;22.06;78.90
69971;BME280;57301;50.328;8.542;2023-08-17T09:11:02;98763.53;;;22.02;79.22
69971;BME280;57301;50.328;8.542;2023-08-17T09:13:29;98752.94;;;22.25;79.19
69971;BME280;57301;50.328;8.542;2023-08-17T09:15:58;98749.50;;;22.11;81.47
69971;BME280;57301;50.328;8.542;2023-08-17T09:18:34;98748.22;;;22.14;78.69
69971;BME280;57301;50.328;8.542;2023-08-17T09:21:04;98749.78;;;22.46;80.27
69971;BME280;57301;50.328;8.542;2023-08-17T09:23:30;98756.50;;;23.24;76.43
69971;BME280;57301;50.328;8.542;2023-08-17T09:26:08;98748.25;;;23.91;73.35
69971;BME280;57301;50.328;8.542;2023-08-17T09:28:38;98736.47;;;24.55;69.35
69971;BME280;57301;50.328;8.542;2023-08-17T09:31:05;98737.72;;;24.18;75.75
69971;BME280;57301;50.328;8.542;2023-08-17T09:33:34;98734.09;;;24.47;71.82
69971;BME280;57301;50.328;8.542;2023-08-17T09:36:01;98741.28;;;24.30;71.54
69971;BME280;57301;50.328;8.542;2023-08-17T09:38:28;98732.19;;;24.48;68.89
69971;BME280;57301;50.328;8.542;2023-08-17T09:40:55;98732.22;;;25.23;75.06
69971;BME280;57301;50.328;8.542;2023-08-17T09:43:23;98733.78;;;25.48;68.23
69971;BME280;57301;50.328;8.542;2023-08-17T09:45:54;98734.44;;;24.74;67.37
69971;BME280;57301;50.328;8.542;2023-08-17T09:48:20;98734.22;;;25.56;64.70
69971;BME280;57301;50.328;8.542;2023-08-17T09:50:47;98735.22;;;25.79;66.96
69971;BME280;57301;50.328;8.542;2023-08-17T09:53:16;98728.44;;;25.41;67.75
69971;BME280;57301;50.328;8.542;2023-08-17T09:55:43;98727.47;;;25.47;68.57
69971;BME280;57301;50.328;8.542;2023-08-17T09:58:11;98720.84;;;25.14;67.13
69971;BME280;57301;50.328;8.542;2023-08-17T10:00:46;98729.53;;;25.11;66.58
69971;BME280;57301;50.328;8.542;2023-08-17T10:03:18;98721.50;;;24.81;67.74
69971;BME280;57301;50.328;8.542;2023-08-17T10:05:54;98709.34;;;25.01;66.83
69971;BME280;57301;50.328;8.542;2023-08-17T10:08:23;98708.63;;;25.17;65.96
69971;BME280;57301;50.328;8.542;2023-08-17T10:10:50;98717.88;;;25.73;66.31
69971;BME280;57301;50.328;8.542;2023-08-17T10:15:53;98712.59;;;26.00;65.27
69971;BME280;57301;50.328;8.542;2023-08-17T10:18:28;98705.31;;;25.89;64.80
69971;BME280;57301;50.328;8.542;2023-08-17T10:21:02;98707.91;;;26.68;62.22
69971;BME280;57301;50.328;8.542;2023-08-17T10:23:29;98695.63;;;26.92;61.64
69971;BME280;57301;50.328;8.542;2023-08-17T10:25:56;98698.00;;;27.05;63.13
69971;BME280;57301;50.328;8.542;2023-08-17T10:28:24;98697.66;;;27.24;61.96
69971;BME280;57301;50.328;8.542;2023-08-17T10:30:51;98702.66;;;27.54;59.26
69971;BME280;57301;50.328;8.542;2023-08-17T10:33:17;98706.09;;;27.17;60.45
69971;BME280;57301;50.328;8.542;2023-08-17T10:35:45;98712.44;;;27.23;60.88
69971;BME280;57301;50.328;8.542;2023-08-17T10:38:12;98705.25;;;27.17;60.88
69971;BME280;57301;50.328;8.542;2023-08-17T10:40:41;98708.66;;;26.63;60.74
69971;BME280;57301;50.328;8.542;2023-08-17T10:43:08;98708.00;;;26.56;62.74
69971;BME280;57301;50.328;8.542;2023-08-17T10:45:35;98704.06;;;27.08;61.32
69971;BME280;57301;50.328;8.542;2023-08-17T10:50:36;98706.72;;;27.02;61.54
69971;BME280;57301;50.328;8.542;2023-08-17T10:53:10;98707.69;;;26.19;64.19
69971;BME280;57301;50.328;8.542;2023-08-17T10:55:42;98713.41;;;25.84;64.90
69971;BME280;57301;50.328;8.542;2023-08-17T10:58:10;98717.88;;;25.44;67.14
69971;BME280;57301;50.328;8.542;2023-08-17T11:00:42;98714.56;;;25.42;68.07
69971;BME280;57301;50.328;8.542;2023-08-17T11:03:18;98706.91;;;25.56;66.35
69971;BME280;57301;50.328;8.542;2023-08-17T11:05:48;98708.19;;;25.82;64.23
69971;BME280;57301;50.328;8.542;2023-08-17T11:11:09;98717.84;;;26.74;61.63
69971;BME280;57301;50.328;8.542;2023-08-17T11:13:38;98711.56;;;26.95;62.11
69971;BME280;57301;50.328;8.542;2023-08-17T11:16:05;98703.78;;;27.31;61.54
69971;BME280;57301;50.328;8.542;2023-08-17T11:18:33;98706.28;;;27.11;59.31
69971;BME280;57301;50.328;8.542;2023-08-17T11:21:02;98701.78;;;26.61;60.54
69971;BME280;57301;50.328;8.542;2023-08-17T11:23:30;98702.84;;;26.76;61.57
69971;BME280;57301;50.328;8.542;2023-08-17T11:25:57;98701.03;;;27.85;58.95
69971;BME280;57301;50.328;8.542;2023-08-17T11:28:24;98699.97;;;28.23;56.84
69971;BME280;57301;50.328;8.542;2023-08-17T11:30:56;98700.38;;;27.46;56.41
69971;BME280;57301;50.328;8.542;2023-08-17T11:33:25;98702.78;;;27.96;56.03
69971;BME280;57301;50.328;8.542;2023-08-17T11:35:54;98705.84;;;28.32;54.30
69971;BME280;57301;50.328;8.542;2023-08-17T11:38:21;98697.38;;;28.38;54.20
69971;BME280;57301;50.328;8.542;2023-08-17T11:40:49;98708.03;;;28.35;54.90
69971;BME280;57301;50.328;8.542;2023-08-17T11:43:16;98702.13;;;28.53;55.27
69971;BME280;57301;50.328;8.542;2023-08-17T11:45:47;98699.56;;;28.89;55.04
69971;BME280;57301;50.328;8.542;2023-08-17T11:48:14;98688.25;;;27.96;58.77
69971;BME280;57301;50.328;8.542;2023-08-17T11:50:43;98699.09;;;27.26;59.53
69971;BME280;57301;50.328;8.542;2023-08-17T11:53:10;98689.47;;;27.51;59.83
69971;BME280;57301;50.328;8.542;2023-08-17T11:55:37;98680.16;;;27.79;55.38
69971;BME280;57301;50.328;8.542;2023-08-17T11:58:04;98673.31;;;29.08;52.91
69971;BME280;57301;50.328;8.542;2023-08-17T12:00:42;98674.88;;;28.04;53.80
69971;BME280;57301;50.328;8.542;2023-08-17T12:03:14;98671.00;;;28.90;53.53
69971;BME280;57301;50.328;8.542;2023-08-17T12:05:41;98674.78;;;28.69;55.58
69971;BME280;57301;50.328;8.542;2023-08-17T12:08:09;98672.31;;;29.50;54.07
69971;BME280;57301;50.328;8.542;2023-08-17T12:10:37;98674.69;;;29.06;56.07
69971;BME280;57301;50.328;8.542;2023-08-17T12:13:04;98680.00;;;28.28;55.59
69971;BME280;57301;50.328;8.542;2023-08-17T12:15:31;98676.25;;;28.39;54.47
69971;BME280;57301;50.328;8.542;2023-08-17T12:18:01;98677.53;;;28.26;55.34
69971;BME280;57301;50.328;8.542;2023-08-17T12:20:28;98672.19;;;28.09;55.53
69971;BME280;57301;50.328;8.542;2023-08-17T12:22:58;98668.88;;;29.02;53.60
69971;BME280;57301;50.328;8.542;2023-08-17T12:25:25;98666.34;;;28.33;54.37
69971;BME280;57301;50.328;8.542;2023-08-17T12:27:52;98673.53;;;28.44;55.14
69971;BME280;57301;50.328;8.542;2023-08-17T12:30:29;98671.72;;;29.33;51.55
69971;BME280;57301;50.328;8.542;2023-08-17T12:32:58;98676.84;;;28.09;55.73
69971;BME280;57301;50.328;8.542;2023-08-17T12:35:25;98670.75;;;30.10;49.97
69971;BME280;57301;50.328;8.542;2023-08-17T12:37:52;98673.47;;;31.60;46.35
69971;BME280;57301;50.328;8.542;2023-08-17T12:40:19;98665.72;;;30.43;49.40
69971;BME280;57301;50.328;8.542;2023-08-17T12:42:46;98673.09;;;29.25;53.12
69971;BME280;57301;50.328;8.542;2023-08-17T12:45:13;98678.78;;;29.03;55.61
69971;BME280;57301;50.328;8.542;2023-08-17T12:47:40;98674.56;;;29.63;53.79
69971;BME280;57301;50.328;8.542;2023-08-17T12:50:07;98678.69;;;28.88;54.38
69971;BME280;57301;50.328;8.542;2023-08-17T12:52:34;98675.22;;;29.08;53.58
69971;BME280;57301;50.328;8.542;2023-08-17T12:55:02;98675.06;;;28.72;55.46
69971;BME280;57301;50.328;8.542;2023-08-17T12:57:28;98677.31;;;29.99;51.46
69971;BME280;57301;50.328;8.542;2023-08-17T12:59:55;98667.03;;;32.67;46.26
69971;BME280;57301;50.328;8.542;2023-08-17T13:02:23;98664.78;;;33.36;44.14
69971;BME280;57301;50.328;8.542;2023-08-17T13:04:49;98665.19;;;32.81;46.04